Time;durP1;ratioP1;P1;durP2;ratioP2;P2;SDS_P1;SDS_P2;PMS_P1;PMS_P2;Temp;Humidity;BMP_temperature;BMP_pressure;BME280_temperature;BME280_humidity;BME280_pressure;Samples;Min_cycle;Max_cycle;Signal;HPM_P1;HPM_P2
2023/02/11 00:00:20;;;;;;;21.00;4.22;;;;;;;5.72;100.00;103461.81;5048729;28;20074;-75
2023/02/11 00:02:45;;;;;;;24.85;3.47;;;;;;;5.71;100.00;103460.03;5046765;28;20105;-75
2023/02/11 00:05:11;;;;;;;25.95;3.70;;;;;;;5.71;100.00;103447.03;5044944;28;20049;-75
2023/02/11 00:07:36;;;;;;;22.73;4.38;;;;;;;5.71;100.00;103458.34;5047184;28;20049;-75
2023/02/11 00:10:06;;;;;;;29.50;4.80;;;;;;;5.71;100.00;103447.03;5041143;28;20051;-75
2023/02/11 00:12:32;;;;;;;24.42;4.00;;;;;;;5.70;100.00;103447.91;5047904;28;20262;-74
2023/02/11 00:14:57;;;;;;;21.60;3.75;;;;;;;5.69;100.00;103454.81;5037804;28;20041;-75
2023/02/11 00:17:23;;;;;;;28.38;5.05;;;;;;;5.69;100.00;103452.19;5052552;28;20202;-75
2023/02/11 00:19:50;;;;;;;23.35;4.47;;;;;;;5.70;100.00;103445.31;5053792;28;20303;-75
2023/02/11 00:22:15;;;;;;;25.77;4.40;;;;;;;5.69;100.00;103452.19;5040525;28;20033;-75
2023/02/11 00:24:40;;;;;;;26.95;3.88;;;;;;;5.69;100.00;103435.72;5046286;28;20244;-75
2023/02/11 00:27:06;;;;;;;18.35;3.65;;;;;;;5.69;100.00;103446.13;5047680;28;20094;-75
2023/02/11 00:29:31;;;;;;;23.63;4.95;;;;;;;5.68;99.98;103440.06;5044838;28;20059;-75
2023/02/11 00:31:57;;;;;;;17.25;3.83;;;;;;;5.68;99.95;103447.00;5043946;28;21162;-75
2023/02/11 00:34:22;;;;;;;18.42;3.55;;;;;;;5.67;100.00;103440.88;5043659;28;20041;-75
2023/02/11 00:36:48;;;;;;;21.60;3.83;;;;;;;5.67;100.00;103434.81;5054242;28;20047;-75
2023/02/11 00:39:13;;;;;;;15.88;3.22;;;;;;;5.67;99.90;103422.69;5044453;28;20059;-75
2023/02/11 00:41:39;;;;;;;19.38;4.18;;;;;;;5.67;99.87;103420.09;5049674;28;20028;-75
2023/02/11 00:44:04;;;;;;;23.00;4.03;;;;;;;5.67;99.99;103421.81;5037340;28;20083;-75
2023/02/11 00:46:30;;;;;;;27.88;3.95;;;;;;;5.67;99.77;103416.63;5050864;28;20037;-75
2023/02/11 00:48:56;;;;;;;18.48;3.60;;;;;;;5.65;99.65;103414.00;5044392;28;20135;-75
2023/02/11 00:51:26;;;;;;;18.80;3.42;;;;;;;5.66;99.63;103407.09;5050291;28;20100;-75
2023/02/11 00:53:52;;;;;;;12.93;3.28;;;;;;;5.67;99.72;103419.22;5051077;28;20047;-75
2023/02/11 00:56:17;;;;;;;14.45;3.45;;;;;;;5.67;99.34;103419.22;5051438;28;20041;-75
2023/02/11 00:58:43;;;;;;;25.13;3.75;;;;;;;5.67;99.46;103417.50;5043287;28;20083;-75
2023/02/11 01:01:08;;;;;;;22.15;3.58;;;;;;;5.68;99.38;103415.78;5043280;28;20033;-75
2023/02/11 01:03:34;;;;;;;28.85;3.85;;;;;;;5.69;99.31;103420.13;5056737;28;20106;-75
2023/02/11 01:05:59;;;;;;;22.30;4.65;;;;;;;5.68;99.44;103418.41;5041939;28;20041;-75
2023/02/11 01:08:25;;;;;;;16.80;3.50;;;;;;;5.68;99.35;103427.06;5053804;28;20224;-75
2023/02/11 01:10:57;;;;;;;26.15;4.10;;;;;;;5.70;99.39;103442.69;5053391;28;20092;-75
2023/02/11 01:13:23;;;;;;;19.60;3.80;;;;;;;5.69;99.36;103438.34;5055227;28;20268;-75
2023/02/11 01:15:48;;;;;;;24.67;3.78;;;;;;;5.69;99.39;103438.34;5047927;28;20044;-75
2023/02/11 01:18:14;;;;;;;22.17;3.38;;;;;;;5.69;99.65;103426.19;5049690;28;20105;-75
2023/02/11 01:20:39;;;;;;;10.95;3.20;;;;;;;5.68;99.47;103421.88;5051927;28;20037;-75
2023/02/11 01:23:05;;;;;;;26.58;4.78;;;;;;;5.67;99.53;103412.28;5054350;28;20041;-75
2023/02/11 01:25:30;;;;;;;13.43;3.25;;;;;;;5.68;99.77;103408.00;5044394;28;20056;-75
2023/02/11 01:27:55;;;;;;;15.80;3.47;;;;;;;5.68;99.78;103408.00;5058080;28;20065;-75
2023/02/11 01:30:21;;;;;;;20.67;3.72;;;;;;;5.67;99.78;103420.09;5040879;28;20096;-75
2023/02/11 01:32:46;;;;;;;19.60;4.20;;;;;;;5.66;99.92;103420.97;5055213;28;20188;-75
2023/02/11 01:35:11;;;;;;;20.55;4.00;;;;;;;5.67;100.00;103416.63;5044398;28;20379;-75
2023/02/11 01:37:37;;;;;;;21.35;3.67;;;;;;;5.64;100.00;103414.84;5048531;28;20086;-75
2023/02/11 01:40:05;;;;;;;21.67;4.63;;;;;;;5.64;100.00;103413.94;5047884;28;20074;-75
2023/02/11 01:42:31;;;;;;;19.55;3.67;;;;;;;5.63;100.00;103401.81;5050079;28;20044;-75
2023/02/11 01:44:59;;;;;;;23.52;4.10;;;;;;;5.61;100.00;103400.91;5042098;28;20233;-75
2023/02/11 01:47:24;;;;;;;13.10;3.63;;;;;;;5.56;100.00;103396.47;5045673;28;20048;-75
2023/02/11 01:50:01;;;;;;;14.77;4.10;;;;;;;5.55;100.00;103401.66;5044460;28;20037;-75
2023/02/11 01:52:37;;;;;;;21.15;4.15;;;;;;;5.52;100.00;103394.66;5055898;28;20324;-75
2023/02/11 01:57:55;;;;;;;23.98;5.07;;;;;;;5.45;100.00;103392.78;5052545;28;20036;-75
2023/02/11 02:00:36;;;;;;;23.95;4.93;;;;;;;5.46;100.00;103402.34;5047386;28;20119;-75
2023/02/11 02:03:07;;;;;;;24.88;4.82;;;;;;;5.44;100.00;103392.72;5051117;28;20056;-75
2023/02/11 02:05:55;;;;;;;19.35;4.05;;;;;;;5.42;100.00;103391.81;5051351;28;20083;-75
2023/02/11 02:08:31;;;;;;;23.73;4.70;;;;;;;5.39;100.00;103396.13;5039533;28;20041;-75
2023/02/11 02:10:59;;;;;;;21.75;4.85;;;;;;;5.39;100.00;103392.66;5041213;28;20221;-75
2023/02/11 02:13:26;;;;;;;18.90;4.22;;;;;;;5.37;100.00;103387.41;5051538;28;20044;-75
2023/02/11 02:15:58;;;;;;;19.95;4.70;;;;;;;5.36;100.00;103398.63;5042193;28;20025;-75
2023/02/11 02:18:35;;;;;;;18.80;4.20;;;;;;;5.36;100.00;103402.97;5052630;28;20064;-75
2023/02/11 02:21:42;;;;;;;10.13;3.53;;;;;;;5.36;100.00;103397.75;5045639;28;20041;-75
2023/02/11 02:24:35;;;;;;;11.43;3.47;;;;;;;5.38;100.00;103394.38;5023816;28;20047;-75
2023/02/11 02:27:23;;;;;;;9.77;4.05;;;;;;;5.40;100.00;103386.59;5038962;28;20033;-75
2023/02/11 02:29:55;;;;;;;19.27;4.78;;;;;;;5.41;100.00;103382.28;5049609;28;20104;-75
2023/02/11 02:32:38;;;;;;;22.65;4.20;;;;;;;5.34;100.00;103379.53;5046068;28;20036;-75
2023/02/11 02:35:03;;;;;;;25.40;5.45;;;;;;;5.34;100.00;103386.47;5038636;28;20057;-75
2023/02/11 02:38:12;;;;;;;22.00;5.65;;;;;;;5.29;100.00;103394.16;5054751;28;20036;-75
2023/02/11 02:40:43;;;;;;;26.88;5.85;;;;;;;5.27;100.00;103405.38;5039367;28;20276;-75
2023/02/11 02:43:10;;;;;;;16.75;4.03;;;;;;;5.24;100.00;103408.78;5054888;28;20020;-75
2023/02/11 02:45:36;;;;;;;12.13;3.42;;;;;;;5.27;100.00;103418.34;5041083;28;20075;-75
2023/02/11 02:48:01;;;;;;;8.95;3.42;;;;;;;5.30;100.00;103421.91;5039845;28;20340;-75
2023/02/11 02:50:36;;;;;;;8.80;3.17;;;;;;;5.33;100.00;103421.97;5052052;28;20051;-75
2023/02/11 02:53:17;;;;;;;4.63;2.50;;;;;;;5.38;100.00;103422.06;5046479;28;20061;-75
2023/02/11 02:55:55;;;;;;;5.40;2.88;;;;;;;5.42;100.00;103420.41;5044693;28;20068;-75
2023/02/11 02:58:26;;;;;;;4.93;2.70;;;;;;;5.45;100.00;103418.75;5050234;28;20052;-75
2023/02/11 03:01:01;;;;;;;22.85;4.93;;;;;;;5.44;100.00;103401.44;5055389;28;20045;-75
2023/02/11 03:03:32;;;;;;;21.45;6.45;;;;;;;5.42;100.00;103390.13;5054262;28;20100;-75
2023/02/11 03:06:10;;;;;;;20.13;5.80;;;;;;;5.40;100.00;103384.00;5049442;28;20285;-75
2023/02/11 03:09:05;;;;;;;27.80;6.10;;;;;;;5.37;100.00;103390.00;5050050;28;20037;-75
2023/02/11 03:11:31;;;;;;;30.08;6.63;;;;;;;5.33;100.00;103396.00;5047849;28;20040;-75
2023/02/11 03:14:01;;;;;;;25.30;5.95;;;;;;;5.31;100.00;103396.78;5051241;28;20065;-75
2023/02/11 03:16:28;;;;;;;28.80;6.18;;;;;;;5.28;100.00;103392.41;5043887;28;20032;-75
2023/02/11 03:19:04;;;;;;;29.55;6.82;;;;;;;5.26;100.00;103398.44;5054899;28;20029;-75
2023/02/11 03:21:32;;;;;;;24.02;7.40;;;;;;;5.24;100.00;103390.59;5048236;28;20029;-75
2023/02/11 03:24:04;;;;;;;20.23;5.93;;;;;;;5.25;100.00;103391.47;5051786;28;20040;-75
2023/02/11 03:26:39;;;;;;;16.75;6.18;;;;;;;5.27;100.00;103395.84;5038788;28;20112;-75
2023/02/11 03:29:10;;;;;;;27.98;6.65;;;;;;;5.28;100.00;103399.34;5039018;28;20038;-75
2023/02/11 03:31:46;;;;;;;28.98;7.07;;;;;;;5.27;100.00;103403.63;5027063;28;20055;-75
2023/02/11 03:34:23;;;;;;;30.02;7.60;;;;;;;5.26;100.00;103403.63;5055893;28;20236;-75
2023/02/11 03:36:54;;;;;;;19.35;6.53;;;;;;;5.24;100.00;103401.00;5051261;28;20092;-75
2023/02/11 03:39:26;;;;;;;28.63;7.53;;;;;;;5.22;100.00;103391.38;5043445;28;20037;-75
2023/02/11 03:41:54;;;;;;;27.77;7.45;;;;;;;5.22;100.00;103386.19;5048542;28;20043;-75
2023/02/11 03:44:24;;;;;;;26.67;7.80;;;;;;;5.21;100.00;103376.66;5045123;28;20037;-75
2023/02/11 03:46:52;;;;;;;24.98;7.18;;;;;;;5.21;100.00;103374.06;5048737;28;20240;-75
2023/02/11 03:49:21;;;;;;;34.33;8.20;;;;;;;5.18;100.00;103373.16;5048439;28;20060;-75
2023/02/11 03:51:50;;;;;;;24.27;8.73;;;;;;;5.19;100.00;103367.09;5046462;28;20352;-75
2023/02/11 03:54:19;;;;;;;18.55;6.95;;;;;;;5.18;100.00;103365.34;5051858;28;20036;-75
2023/02/11 03:56:52;;;;;;;13.52;6.07;;;;;;;5.21;100.00;103374.06;5042343;28;20032;-74
2023/02/11 03:59:17;;;;;;;21.02;7.70;;;;;;;5.20;100.00;103370.56;5041417;28;20041;-75
2023/02/11 04:01:43;;;;;;;23.80;7.82;;;;;;;5.22;100.00;103368.00;5053565;28;20037;-75
2023/02/11 04:04:09;;;;;;;25.77;7.63;;;;;;;5.21;100.00;103377.53;5038827;28;20045;-75
2023/02/11 04:06:34;;;;;;;33.25;8.60;;;;;;;5.22;100.00;103374.09;5045332;28;20061;-75
2023/02/11 04:09:00;;;;;;;26.85;8.00;;;;;;;5.23;100.00;103372.38;5049230;28;20029;-75
2023/02/11 04:11:25;;;;;;;20.63;7.40;;;;;;;5.22;100.00;103376.69;5041796;28;20427;-75
2023/02/11 04:13:51;;;;;;;15.88;6.68;;;;;;;5.24;100.00;103379.31;5051428;28;20375;-75
2023/02/11 04:16:16;;;;;;;19.17;6.88;;;;;;;5.27;100.00;103379.38;5045756;28;20041;-75
2023/02/11 04:18:41;;;;;;;17.90;7.25;;;;;;;5.28;100.00;103386.34;5046625;28;20040;-75
2023/02/11 04:21:07;;;;;;;21.15;8.23;;;;;;;5.28;100.00;103375.94;5050061;28;20044;-75
2023/02/11 04:23:32;;;;;;;22.92;7.90;;;;;;;5.28;100.00;103381.16;5041552;28;20213;-75
2023/02/11 04:25:58;;;;;;;29.33;7.85;;;;;;;5.29;100.00;103383.75;5057234;28;20049;-75
2023/02/11 04:28:23;;;;;;;28.75;8.40;;;;;;;5.26;100.00;103382.84;5042350;28;20041;-75
2023/02/11 04:30:50;;;;;;;27.70;8.48;;;;;;;5.26;100.00;103381.09;5060774;28;20045;-75
2023/02/11 04:33:15;;;;;;;29.92;8.90;;;;;;;5.27;100.00;103374.19;5058328;28;20033;-75
2023/02/11 04:35:40;;;;;;;25.98;8.85;;;;;;;5.24;100.00;103381.91;5046902;28;20052;-75
2023/02/11 04:38:06;;;;;;;35.15;9.43;;;;;;;5.22;100.00;103381.00;5043394;28;20038;-75
2023/02/11 04:40:31;;;;;;;35.00;10.40;;;;;;;5.19;100.00;103380.09;5049266;28;20048;-75
2023/02/11 04:42:57;;;;;;;32.58;11.55;;;;;;;5.19;100.00;103376.63;5050797;28;20048;-75
2023/02/11 04:45:22;;;;;;;24.17;9.75;;;;;;;5.17;100.00;103381.78;5054007;28;20057;-75
2023/02/11 04:47:47;;;;;;;27.83;9.98;;;;;;;5.17;100.00;103379.19;5044439;28;20033;-75
2023/02/11 04:50:13;;;;;;;24.92;8.65;;;;;;;5.18;100.00;103380.03;5034150;28;20248;-75
2023/02/11 04:52:38;;;;;;;23.38;10.20;;;;;;;5.19;100.00;103381.81;5057163;28;20075;-75
2023/02/11 04:55:04;;;;;;;20.05;8.38;;;;;;;5.21;100.00;103374.94;5060084;28;20060;-75
2023/02/11 04:57:29;;;;;;;28.85;8.85;;;;;;;5.24;100.00;103377.59;5047074;28;20041;-75
2023/02/11 04:59:55;;;;;;;20.95;8.40;;;;;;;5.27;100.00;103369.84;5046487;28;20352;-75
2023/02/11 05:02:20;;;;;;;19.70;8.52;;;;;;;5.27;100.00;103369.84;5044555;28;20260;-75
2023/02/11 05:04:46;;;;;;;15.18;7.25;;;;;;;5.30;100.00;103369.06;5051682;28;20352;-75
2023/02/11 05:07:11;;;;;;;30.15;12.38;;;;;;;5.31;100.00;103361.31;5049389;28;20366;-75
2023/02/11 05:09:37;;;;;;;25.92;11.35;;;;;;;5.32;100.00;103365.63;5036400;28;20037;-75
2023/02/11 05:12:02;;;;;;;30.27;12.02;;;;;;;5.31;100.00;103357.81;5049660;28;20037;-75
2023/02/11 05:14:28;;;;;;;32.78;13.10;;;;;;;5.29;100.00;103359.50;5044627;28;20037;-75
2023/02/11 05:16:53;;;;;;;38.75;13.13;;;;;;;5.27;100.00;103356.00;5059888;28;20067;-75
2023/02/11 05:19:18;;;;;;;36.80;13.75;;;;;;;5.23;100.00;103361.97;5041658;28;20029;-75
2023/02/11 05:21:44;;;;;;;31.77;13.40;;;;;;;5.22;100.00;103374.09;5056066;28;20312;-75
2023/02/11 05:24:09;;;;;;;36.95;15.48;;;;;;;5.21;100.00;103377.53;5045953;28;20032;-75
2023/02/11 05:26:35;;;;;;;32.92;12.95;;;;;;;5.21;100.00;103385.31;5045882;28;20104;-75
2023/02/11 05:29:01;;;;;;;36.33;14.35;;;;;;;5.22;100.00;103373.19;5051358;28;20138;-75
2023/02/11 05:31:26;;;;;;;41.08;14.27;;;;;;;5.22;100.00;103384.50;5051782;28;20061;-75
2023/02/11 05:33:52;;;;;;;44.38;15.90;;;;;;;5.22;100.00;103383.59;5046888;28;20076;-75
2023/02/11 05:36:17;;;;;;;41.38;13.57;;;;;;;5.23;100.00;103395.75;5035430;28;20040;-75
2023/02/11 05:38:42;;;;;;;38.83;14.18;;;;;;;5.24;100.00;103394.88;5044548;28;20352;-75
2023/02/11 05:41:09;;;;;;;42.25;14.93;;;;;;;5.24;100.00;103397.50;5059251;28;20057;-75
2023/02/11 05:43:35;;;;;;;36.55;14.57;;;;;;;5.24;100.00;103395.78;5046378;28;20044;-75
2023/02/11 05:46:01;;;;;;;43.15;15.40;;;;;;;5.25;100.00;103399.25;5051826;28;20033;-75
2023/02/11 05:48:26;;;;;;;37.42;15.13;;;;;;;5.24;100.00;103394.88;5057618;28;20088;-75
2023/02/11 05:50:52;;;;;;;41.38;14.60;;;;;;;5.26;100.00;103398.44;5047921;28;20049;-75
2023/02/11 05:53:17;;;;;;;40.08;16.10;;;;;;;5.27;100.00;103392.38;5051584;28;20067;-75
2023/02/11 05:55:42;;;;;;;45.80;16.05;;;;;;;5.28;100.00;103391.53;5051508;28;20049;-75
2023/02/11 05:58:08;;;;;;;41.50;16.33;;;;;;;5.26;100.00;103386.31;5046174;28;20040;-75
2023/02/11 06:00:34;;;;;;;39.10;16.25;;;;;;;5.28;100.00;103391.53;5055610;28;20348;-75
2023/02/11 06:03:00;;;;;;;30.27;13.98;;;;;;;5.28;100.00;103394.13;5042517;28;20052;-75
2023/02/11 06:05:25;;;;;;;27.88;12.35;;;;;;;5.30;100.00;103395.91;5058682;28;20127;-75
2023/02/11 06:07:51;;;;;;;24.35;12.43;;;;;;;5.34;100.00;103407.25;5042445;28;20056;-75
2023/02/11 06:10:16;;;;;;;36.70;15.13;;;;;;;5.34;100.00;103402.06;5043037;28;20226;-75
2023/02/11 06:12:42;;;;;;;32.55;15.38;;;;;;;5.31;100.00;103396.78;5054057;28;20033;-75
2023/02/11 06:15:07;;;;;;;36.72;17.25;;;;;;;5.27;100.00;103385.44;5047757;28;20059;-75
2023/02/11 06:17:32;;;;;;;40.95;16.40;;;;;;;5.25;100.00;103392.34;5054241;28;20062;-75
2023/02/11 06:19:59;;;;;;;38.22;15.40;;;;;;;5.22;100.00;103383.59;5051770;28;20371;-75
2023/02/11 06:22:25;;;;;;;29.08;14.05;;;;;;;5.23;100.00;103388.81;5046668;28;20039;-75
2023/02/11 06:24:51;;;;;;;32.20;15.07;;;;;;;5.25;100.00;103399.25;5043701;28;20029;-75
2023/02/11 06:27:17;;;;;;;32.70;13.15;;;;;;;5.27;100.00;103398.44;5056814;28;20033;-75
2023/02/11 06:29:44;;;;;;;35.60;14.38;;;;;;;5.27;100.00;103395.84;5040267;28;20056;-75
2023/02/11 06:32:09;;;;;;;28.63;12.27;;;;;;;5.28;100.00;103408.00;5050366;28;20037;-75
2023/02/11 06:34:34;;;;;;;24.15;10.70;;;;;;;5.30;100.00;103403.72;5046990;28;20111;-75
2023/02/11 06:37:00;;;;;;;19.75;9.55;;;;;;;5.33;100.00;103397.69;5052714;28;20040;-75
2023/02/11 06:39:25;;;;;;;15.73;8.68;;;;;;;5.36;100.00;103389.97;5047130;28;20033;-75
2023/02/11 06:41:51;;;;;;;18.10;8.75;;;;;;;5.38;100.00;103402.16;5048974;28;20043;-75
2023/02/11 06:44:16;;;;;;;17.17;9.15;;;;;;;5.37;100.00;103402.13;5050618;28;20032;-75
2023/02/11 06:46:42;;;;;;;16.52;9.68;;;;;;;5.37;100.00;103396.94;5025079;28;20040;-75
2023/02/11 06:49:07;;;;;;;15.27;8.98;;;;;;;5.37;100.00;103404.72;5051758;28;20352;-75
2023/02/11 06:51:32;;;;;;;15.10;8.80;;;;;;;5.38;100.00;103403.88;5040075;28;20033;-75
2023/02/11 06:53:58;;;;;;;16.23;9.20;;;;;;;5.37;100.00;103400.41;5057910;28;20061;-75
2023/02/11 06:56:26;;;;;;;14.10;8.77;;;;;;;5.37;100.00;103410.81;5047175;28;20047;-75
2023/02/11 06:58:55;;;;;;;14.55;8.93;;;;;;;5.36;100.00;103414.22;5048860;28;20043;-75
2023/02/11 07:01:21;;;;;;;16.08;10.00;;;;;;;5.35;100.00;103404.69;5044241;28;20037;-75
2023/02/11 07:03:47;;;;;;;15.32;9.73;;;;;;;5.36;100.00;103405.56;5039271;28;20057;-75
2023/02/11 07:06:16;;;;;;;17.30;9.98;;;;;;;5.34;100.00;103408.13;5035574;28;20345;-75
2023/02/11 07:08:42;;;;;;;;;;;;;;;5.35;100.00;103406.44;5051562;28;20040;-75
2023/02/11 07:11:19;;;;;;;13.38;9.00;;;;;;;5.36;100.00;103410.75;5047760;28;19940;-75
2023/02/11 07:13:46;;;;;;;20.33;11.20;;;;;;;5.34;100.00;103415.91;5032242;28;20033;-75
2023/02/11 07:16:14;;;;;;;18.77;10.63;;;;;;;5.33;100.00;103427.19;5044233;28;20040;-75
2023/02/11 07:18:40;;;;;;;17.88;9.90;;;;;;;5.33;100.00;103423.69;5040119;28;20087;-75
2023/02/11 07:21:07;;;;;;;16.60;9.45;;;;;;;5.32;100.00;103422.81;5051764;28;20048;-75
2023/02/11 07:23:33;;;;;;;16.50;9.60;;;;;;;5.31;100.00;103421.06;5039022;28;20037;-75
2023/02/11 07:26:03;;;;;;;15.27;10.10;;;;;;;5.30;100.00;103424.50;5044098;28;20049;-75
2023/02/11 07:28:28;;;;;;;17.10;10.07;;;;;;;5.29;100.00;103420.13;5040281;28;20237;-75
2023/02/11 07:30:54;;;;;;;16.10;10.18;;;;;;;5.28;100.00;103428.78;5051926;28;20033;-75
2023/02/11 07:33:19;;;;;;;17.33;10.02;;;;;;;5.28;100.00;103427.91;5045677;28;20330;-75
2023/02/11 07:35:45;;;;;;;17.90;10.02;;;;;;;5.29;100.00;103437.44;5017713;28;20021;-75
2023/02/11 07:38:10;;;;;;;16.58;10.25;;;;;;;5.28;100.00;103438.31;5041812;28;20056;-75
2023/02/11 07:40:35;;;;;;;17.15;10.50;;;;;;;5.28;100.00;103438.31;5036781;28;20033;-75
2023/02/11 07:43:01;;;;;;;15.57;9.35;;;;;;;5.28;100.00;103438.31;5038414;28;20248;-75
2023/02/11 07:45:27;;;;;;;18.55;10.15;;;;;;;5.28;100.00;103444.38;5040780;28;20671;-75
2023/02/11 07:47:53;;;;;;;16.10;10.13;;;;;;;5.29;100.00;103447.84;5042280;28;20047;-75
2023/02/11 07:50:18;;;;;;;13.20;9.45;;;;;;;5.29;100.00;103440.03;5043810;28;20144;-75
2023/02/11 07:52:43;;;;;;;16.45;9.65;;;;;;;5.30;100.00;103444.41;5045463;28;20041;-75
2023/02/11 07:55:10;;;;;;;34.55;16.20;;;;;;;5.27;100.00;103445.19;5037684;28;20049;-75
2023/02/11 07:57:35;;;;;;;23.67;13.38;;;;;;;5.27;100.00;103444.34;5037885;28;20036;-75
2023/02/11 08:00:01;;;;;;;20.20;12.60;;;;;;;5.26;100.00;103442.59;5046565;28;20028;-75
2023/02/11 08:02:27;;;;;;;18.38;10.43;;;;;;;5.28;100.00;103448.69;5044569;28;20040;-75
2023/02/11 08:04:52;;;;;;;23.20;12.43;;;;;;;5.29;100.00;103445.25;5048284;28;20118;-75
2023/02/11 08:07:17;;;;;;;38.65;18.48;;;;;;;5.28;100.00;103444.38;5044557;28;20119;-75
2023/02/11 08:09:43;;;;;;;27.95;14.93;;;;;;;5.28;100.00;103451.31;5041700;28;20065;-75
2023/02/11 08:12:09;;;;;;;25.27;13.82;;;;;;;5.28;100.00;103457.38;5041244;28;20033;-75
2023/02/11 08:14:34;;;;;;;35.63;16.58;;;;;;;5.28;100.00;103459.97;5045744;28;20029;-75
2023/02/11 08:17:00;;;;;;;28.55;16.50;;;;;;;5.29;100.00;103472.09;5041667;28;20341;-75
2023/02/11 08:19:26;;;;;;;35.53;17.73;;;;;;;5.30;100.00;103463.47;5045125;28;20064;-75
2023/02/11 08:21:54;;;;;;;32.53;16.55;;;;;;;5.30;100.00;103454.81;5049329;28;20088;-75
2023/02/11 08:24:20;;;;;;;28.52;14.60;;;;;;;5.30;100.00;103463.47;5033605;28;20080;-75
2023/02/11 08:26:45;;;;;;;53.53;20.80;;;;;;;5.33;100.00;103458.34;5030582;28;20040;-75
2023/02/11 08:29:13;;;;;;;48.75;21.95;;;;;;;5.36;100.00;103462.75;5040866;28;20037;-75
2023/02/11 08:31:41;;;;;;;47.95;22.25;;;;;;;5.37;100.00;103465.38;5052071;28;20048;-75
2023/02/11 08:34:07;;;;;;;49.42;22.80;;;;;;;5.38;100.00;103468.84;5046242;28;20037;-75
2023/02/11 08:36:35;;;;;;;41.80;20.77;;;;;;;5.38;100.00;103471.44;5054132;28;20214;-75
2023/02/11 08:39:04;;;;;;;47.03;23.23;;;;;;;5.38;100.00;103469.75;5053984;28;20098;-75
2023/02/11 08:41:30;;;;;;;47.58;22.45;;;;;;;5.40;100.00;103480.16;5041565;28;20123;-75
2023/02/11 08:43:55;;;;;;;51.55;23.10;;;;;;;5.44;100.00;103488.91;5042309;28;20048;-75
2023/02/11 08:46:21;;;;;;;52.67;22.92;;;;;;;5.47;100.00;103488.97;5041632;28;20041;-75
2023/02/11 08:48:46;;;;;;;49.13;22.95;;;;;;;5.50;100.00;103486.47;5042163;28;20029;-75
2023/02/11 08:51:15;;;;;;;50.97;22.35;;;;;;;5.53;100.00;103494.31;5042075;28;20057;-75
2023/02/11 08:53:41;;;;;;;55.08;22.60;;;;;;;5.55;100.00;103500.44;5042101;28;20033;-75
2023/02/11 08:56:09;;;;;;;57.13;23.02;;;;;;;5.57;100.00;103499.63;5042276;28;20067;-75
2023/02/11 08:58:34;;;;;;;50.95;22.17;;;;;;;5.60;100.00;103495.34;5046569;28;20363;-75
2023/02/11 09:00:59;;;;;;;51.88;22.63;;;;;;;5.62;100.00;103494.53;5047767;28;20041;-75
2023/02/11 09:03:25;;;;;;;47.38;22.65;;;;;;;5.65;100.00;103498.91;5051420;28;20284;-75
2023/02/11 09:05:52;;;;;;;48.67;20.42;;;;;;;5.66;100.00;103498.97;5046044;28;20060;-75
2023/02/11 09:08:18;;;;;;;50.53;21.25;;;;;;;5.69;100.00;103503.34;5053122;28;20057;-75
2023/02/11 09:10:45;;;;;;;44.65;20.45;;;;;;;5.70;100.00;103497.31;5052768;28;20036;-75
2023/02/11 09:13:10;;;;;;;39.50;17.98;;;;;;;5.73;100.00;103498.25;5048809;28;20247;-75
2023/02/11 09:15:36;;;;;;;44.78;20.48;;;;;;;5.77;100.00;103499.19;5046383;28;20056;-75
2023/02/11 09:18:02;;;;;;;45.80;21.23;;;;;;;5.84;100.00;103497.59;5041822;28;20036;-75
2023/02/11 09:20:28;;;;;;;44.20;20.15;;;;;;;5.89;100.00;103506.38;5041354;28;20052;-75
2023/02/11 09:22:55;;;;;;;43.90;20.02;;;;;;;5.93;100.00;103511.69;5041512;28;20164;-75
2023/02/11 09:25:20;;;;;;;41.10;19.98;;;;;;;5.99;100.00;103503.16;5041184;28;20041;-75
2023/02/11 09:27:46;;;;;;;38.45;19.35;;;;;;;6.02;100.00;103502.34;5041605;28;20060;-75
2023/02/11 09:30:11;;;;;;;41.42;19.70;;;;;;;6.04;100.00;103504.16;5041725;28;20088;-75
2023/02/11 09:32:37;;;;;;;38.97;20.00;;;;;;;6.07;100.00;103505.91;5040869;28;20109;-75
2023/02/11 09:35:03;;;;;;;36.65;18.45;;;;;;;6.12;100.00;103509.50;5041354;28;20056;-75
2023/02/11 09:37:28;;;;;;;37.83;17.65;;;;;;;6.14;100.00;103513.88;5041099;28;20343;-75
2023/02/11 09:39:54;;;;;;;40.75;18.48;;;;;;;6.18;100.00;103508.75;5041412;28;20041;-75
2023/02/11 09:42:41;;;;;;;35.47;17.52;;;;;;;6.22;100.00;103515.75;5040726;28;20033;-75
2023/02/11 09:45:15;;;;;;;36.83;17.42;;;;;;;6.25;100.00;103515.84;5041418;28;20320;-75
2023/02/11 09:47:51;;;;;;;30.85;16.73;;;;;;;6.28;100.00;103519.38;5022948;28;20029;-75
2023/02/11 09:50:24;;;;;;;31.13;15.45;;;;;;;6.30;100.00;103517.69;5040852;28;20543;-75
2023/02/11 09:53:00;;;;;;;36.63;15.85;;;;;;;6.31;100.00;103516.84;5040935;28;20093;-75
2023/02/11 09:55:31;;;;;;;32.25;16.33;;;;;;;6.34;100.00;103511.69;5038943;28;20064;-75
2023/02/11 09:57:57;;;;;;;36.60;15.57;;;;;;;6.37;100.00;103515.19;5024814;28;20065;-75
2023/02/11 10:00:44;;;;;;;31.23;16.25;;;;;;;6.42;100.00;103516.16;5052999;28;20125;-75
2023/02/11 10:03:31;;;;;;;27.33;15.35;;;;;;;6.44;100.00;103515.34;5047379;28;20033;-75
2023/02/11 10:05:56;;;;;;;31.25;15.20;;;;;;;6.48;100.00;103526.72;5026300;28;20057;-75
2023/02/11 10:08:46;;;;;;;29.10;15.68;;;;;;;6.51;100.00;103521.53;5040513;28;20029;-75
2023/02/11 10:11:31;;;;;;;24.80;14.55;;;;;;;6.53;100.00;103528.56;5048781;28;20104;-75
2023/02/11 10:14:34;;;;;;;29.15;14.45;;;;;;;6.56;100.00;103532.94;5051489;28;20044;-75
2023/02/11 10:17:19;;;;;;;29.17;14.13;;;;;;;6.60;100.00;103539.06;5015151;28;20068;-75
2023/02/11 10:19:56;;;;;;;27.92;15.25;;;;;;;6.63;100.00;103544.34;5046336;28;20029;-75
2023/02/11 10:22:31;;;;;;;29.15;14.75;;;;;;;6.67;100.00;103553.97;5038746;28;20339;-75
2023/02/11 10:24:59;;;;;;;25.67;13.70;;;;;;;6.70;100.00;103554.03;5040281;28;20017;-75
2023/02/11 10:27:32;;;;;;;24.42;12.88;;;;;;;6.76;100.00;103563.69;5040049;28;20232;-75
2023/02/11 10:30:21;;;;;;;20.05;13.05;;;;;;;6.78;100.00;103560.25;5040526;28;20306;-75
2023/02/11 10:32:51;;;;;;;27.17;13.82;;;;;;;6.82;100.00;103561.19;5026155;28;20087;-75
2023/02/11 10:35:20;;;;;;;22.30;12.70;;;;;;;6.84;100.00;103562.97;5039826;28;20033;-75
2023/02/11 10:37:46;;;;;;;21.88;13.55;;;;;;;6.88;100.00;103559.56;5039942;28;20037;-75
2023/02/11 10:40:29;;;;;;;22.60;12.85;;;;;;;6.90;100.00;103568.28;5040076;28;20092;-75
2023/02/11 10:42:59;;;;;;;22.33;11.98;;;;;;;6.92;100.00;103568.31;5040205;28;20045;-75
2023/02/11 10:45:38;;;;;;;23.17;13.25;;;;;;;6.93;100.00;103567.50;5040062;28;20065;-75
2023/02/11 10:48:05;;;;;;;28.50;13.88;;;;;;;6.95;100.00;103571.00;5039977;28;20352;-75
2023/02/11 10:50:33;;;;;;;26.38;13.93;;;;;;;6.98;100.00;103573.63;5039655;28;20029;-75
2023/02/11 10:53:28;;;;;;;24.83;13.93;;;;;;;7.01;100.00;103578.03;5040189;28;20519;-75
2023/02/11 10:55:56;;;;;;;25.90;13.38;;;;;;;7.03;100.00;103581.56;5005209;28;20052;-75
2023/02/11 10:58:30;;;;;;;26.33;13.68;;;;;;;7.04;100.00;103586.78;5039441;28;20036;-75
2023/02/11 11:00:58;;;;;;;22.90;12.77;;;;;;;7.07;100.00;103592.03;5039915;28;20037;-75
2023/02/11 11:03:27;;;;;;;21.40;13.30;;;;;;;7.10;100.00;103599.06;5039241;28;20044;-75
2023/02/11 11:06:05;;;;;;;19.65;13.07;;;;;;;7.14;100.00;103600.00;5042627;28;20044;-75
2023/02/11 11:08:50;;;;;;;20.52;13.73;;;;;;;7.17;100.00;103605.22;5050972;28;20128;-75
2023/02/11 11:11:21;;;;;;;26.95;13.35;;;;;;;7.17;100.00;103600.03;5041349;28;20041;-75
2023/02/11 11:13:52;;;;;;;20.63;12.80;;;;;;;7.19;100.00;103598.34;5039464;28;20022;-75
2023/02/11 11:16:23;;;;;;;22.52;13.15;;;;;;;7.20;100.00;103605.28;5053245;28;20193;-75
2023/02/11 11:18:52;;;;;;;25.75;14.05;;;;;;;7.22;100.00;103600.97;5049702;28;20052;-75
2023/02/11 11:21:32;;;;;;;20.70;13.00;;;;;;;7.24;100.00;103602.78;5054092;28;20032;-75
2023/02/11 11:24:01;;;;;;;18.05;12.57;;;;;;;7.27;100.00;103596.72;5047834;28;20029;-75